createdAt,value
2023-02-27T00:01:47.712Z,6.10
2023-02-27T00:04:20.939Z,5.50
2023-02-27T00:06:54.731Z,5.40
2023-02-27T00:09:28.486Z,4.50
2023-02-27T00:12:01.793Z,4.90
2023-02-27T00:14:34.869Z,5.50
2023-02-27T00:17:08.269Z,6.00
2023-02-27T00:19:41.333Z,5.10
2023-02-27T00:22:14.414Z,4.40
2023-02-27T00:24:47.390Z,4.40
2023-02-27T00:27:20.431Z,4.30
2023-02-27T00:29:53.415Z,5.20
2023-02-27T00:32:26.681Z,4.60
2023-02-27T00:34:59.690Z,5.50
2023-02-27T00:37:32.808Z,5.60
2023-02-27T00:40:06.739Z,4.90
2023-02-27T00:42:40.212Z,4.80
2023-02-27T00:45:14.981Z,5.60
2023-02-27T00:47:48.231Z,5.70
2023-02-27T00:50:21.753Z,5.30
2023-02-27T00:52:54.813Z,5.70
2023-02-27T00:55:27.957Z,4.80
2023-02-27T00:58:01.039Z,4.80
2023-02-27T01:00:34.198Z,4.50
2023-02-27T01:03:07.530Z,5.20
2023-02-27T01:05:40.855Z,4.90
2023-02-27T01:08:14.596Z,5.10
2023-02-27T01:10:47.840Z,5.20
2023-02-27T01:13:20.881Z,3.80
2023-02-27T01:15:54.206Z,4.50
2023-02-27T01:18:27.336Z,4.10
2023-02-27T01:21:01.824Z,5.50
2023-02-27T01:23:34.973Z,4.10
2023-02-27T01:26:08.338Z,4.40
2023-02-27T01:28:41.497Z,4.70
2023-02-27T01:31:15.102Z,5.90
2023-02-27T01:33:49.264Z,4.30
2023-02-27T01:36:22.491Z,4.80
2023-02-27T01:38:55.578Z,4.80
2023-02-27T01:41:30.042Z,4.40
2023-02-27T01:44:06.602Z,4.60
2023-02-27T01:46:40.449Z,4.40
2023-02-27T01:49:19.127Z,4.00
2023-02-27T01:52:02.099Z,5.60
2023-02-27T01:54:38.105Z,4.70
2023-02-27T01:57:11.806Z,4.50
2023-02-27T01:59:45.921Z,4.40
2023-02-27T02:02:25.615Z,4.50
2023-02-27T02:05:00.454Z,4.70
2023-02-27T02:07:34.877Z,3.00
2023-02-27T02:10:09.876Z,4.00
2023-02-27T02:12:44.296Z,4.80
2023-02-27T02:15:18.348Z,4.80
2023-02-27T02:18:03.389Z,4.50
2023-02-27T02:21:33.889Z,3.90
2023-02-27T02:25:18.005Z,4.60
2023-02-27T02:28:18.659Z,4.30
2023-02-27T02:31:29.493Z,4.40
2023-02-27T02:34:34.893Z,3.80
2023-02-27T02:37:46.098Z,4.30
2023-02-27T02:40:33.439Z,4.20
2023-02-27T02:43:13.178Z,3.90
2023-02-27T02:45:56.030Z,4.10
2023-02-27T02:48:37.703Z,3.80
2023-02-27T02:51:20.088Z,4.40
2023-02-27T02:54:01.826Z,4.10
2023-02-27T02:56:40.996Z,4.10
2023-02-27T02:59:19.608Z,3.80
2023-02-27T03:01:58.416Z,4.30
2023-02-27T03:04:41.064Z,3.80
2023-02-27T03:07:22.796Z,3.80
2023-02-27T03:10:05.337Z,3.50
2023-02-27T03:12:41.296Z,3.50
2023-02-27T03:15:19.776Z,4.20
2023-02-27T03:18:01.864Z,3.90
2023-02-27T03:20:39.956Z,3.50
2023-02-27T03:23:19.341Z,2.80
2023-02-27T03:25:56.612Z,3.20
2023-02-27T03:28:37.111Z,3.20
2023-02-27T03:31:15.595Z,3.10
2023-02-27T03:33:55.154Z,3.20
2023-02-27T03:36:45.389Z,3.20
2023-02-27T03:39:32.777Z,3.70
2023-02-27T03:42:16.397Z,3.40
2023-02-27T03:45:21.640Z,2.80
2023-02-27T03:47:55.278Z,3.10
2023-02-27T03:50:28.521Z,3.40
2023-02-27T03:53:02.281Z,2.90
2023-02-27T03:55:41.419Z,3.40
2023-02-27T03:58:14.685Z,2.80
2023-02-27T04:00:47.908Z,3.40
2023-02-27T04:03:21.494Z,3.00
2023-02-27T04:05:55.357Z,3.70
2023-02-27T04:08:57.628Z,3.80
2023-02-27T04:11:52.828Z,2.10
2023-02-27T04:14:46.514Z,2.50
2023-02-27T04:17:25.915Z,3.10
2023-02-27T04:20:31.361Z,3.70
2023-02-27T04:23:07.914Z,2.80
2023-02-27T04:25:56.107Z,3.50
2023-02-27T04:28:41.856Z,2.50
2023-02-27T04:31:20.183Z,2.60
2023-02-27T04:34:00.408Z,2.90
2023-02-27T04:36:39.236Z,3.10
2023-02-27T04:39:21.234Z,3.10
2023-02-27T04:41:59.925Z,2.70
2023-02-27T04:44:36.274Z,2.60
2023-02-27T04:47:12.738Z,3.10
2023-02-27T04:49:51.752Z,2.90
2023-02-27T04:52:29.499Z,2.80
2023-02-27T04:55:11.362Z,3.10
2023-02-27T04:57:51.314Z,2.90
2023-02-27T05:00:27.419Z,3.90
2023-02-27T05:03:11.176Z,3.20
2023-02-27T05:05:47.591Z,3.30
2023-02-27T05:08:27.890Z,3.30
2023-02-27T05:11:09.445Z,3.10
2023-02-27T05:13:48.234Z,2.70
2023-02-27T05:16:28.214Z,2.90
2023-02-27T05:19:03.176Z,2.90
2023-02-27T05:21:42.547Z,3.90
2023-02-27T05:24:25.343Z,3.60
2023-02-27T05:27:21.525Z,3.30
2023-02-27T05:29:57.750Z,3.90
2023-02-27T05:32:41.047Z,3.10
2023-02-27T05:35:27.340Z,3.20
2023-02-27T05:38:10.882Z,2.90
2023-02-27T05:40:48.297Z,3.10
2023-02-27T05:43:27.619Z,2.90
2023-02-27T05:46:06.757Z,3.60
2023-02-27T05:48:44.742Z,3.60
2023-02-27T05:51:20.997Z,3.30
2023-02-27T05:53:59.731Z,3.70
2023-02-27T05:56:35.036Z,2.90
2023-02-27T05:59:12.965Z,3.80
2023-02-27T06:01:46.578Z,3.60
2023-02-27T06:04:19.823Z,4.00
2023-02-27T06:06:53.192Z,3.80
2023-02-27T06:09:26.269Z,3.80
2023-02-27T06:12:00.380Z,3.80
2023-02-27T06:14:33.489Z,4.00
2023-02-27T06:17:07.167Z,3.10
2023-02-27T06:19:40.250Z,4.50
2023-02-27T06:22:13.772Z,3.90
2023-02-27T06:24:46.943Z,3.10
2023-02-27T06:27:20.108Z,4.00
2023-02-27T06:29:53.761Z,3.90
2023-02-27T06:32:27.069Z,3.90
2023-02-27T06:35:00.241Z,4.10
2023-02-27T06:37:33.332Z,3.70
2023-02-27T06:40:11.668Z,3.50
2023-02-27T06:42:46.021Z,3.60
2023-02-27T06:45:20.013Z,3.10
2023-02-27T06:47:53.272Z,3.90
2023-02-27T06:50:26.403Z,4.20
2023-02-27T06:52:59.645Z,3.00
2023-02-27T06:55:32.722Z,2.80
2023-02-27T06:58:06.132Z,3.70
2023-02-27T07:00:39.326Z,3.10
2023-02-27T07:03:13.644Z,3.40
2023-02-27T07:05:46.863Z,3.70
2023-02-27T07:08:20.068Z,3.40
2023-02-27T07:10:53.423Z,4.40
2023-02-27T07:13:26.574Z,4.40
2023-02-27T07:15:59.605Z,3.80
2023-02-27T07:18:32.660Z,3.60
2023-02-27T07:21:05.882Z,4.10
2023-02-27T07:23:39.020Z,3.80
2023-02-27T07:26:12.281Z,3.90
2023-02-27T07:28:45.499Z,3.60
2023-02-27T07:31:19.092Z,4.30
2023-02-27T07:33:52.215Z,4.40
2023-02-27T07:36:26.061Z,4.00
2023-02-27T07:38:59.609Z,3.30
2023-02-27T07:41:32.694Z,3.70
2023-02-27T07:44:08.803Z,4.60
2023-02-27T07:46:41.949Z,3.60
2023-02-27T07:49:15.990Z,5.00
2023-02-27T07:51:49.287Z,4.10
2023-02-27T07:54:22.666Z,4.20
2023-02-27T07:56:55.703Z,5.60
2023-02-27T07:59:28.914Z,5.20
2023-02-27T08:02:02.023Z,4.10
2023-02-27T08:04:35.180Z,5.10
2023-02-27T08:07:08.682Z,3.40
2023-02-27T08:09:41.729Z,4.30
2023-02-27T08:12:14.766Z,4.70
2023-02-27T08:14:47.853Z,6.00
2023-02-27T08:17:21.199Z,4.60
2023-02-27T08:19:54.319Z,4.60
2023-02-27T08:22:27.352Z,3.60
2023-02-27T08:25:01.335Z,4.30
2023-02-27T08:27:34.461Z,4.00
2023-02-27T08:30:10.467Z,4.60
2023-02-27T08:32:44.008Z,5.30
2023-02-27T08:35:17.621Z,6.90
2023-02-27T08:37:50.846Z,5.30
2023-02-27T08:40:25.731Z,5.30
2023-02-27T08:42:58.805Z,4.40
2023-02-27T08:45:31.998Z,3.60
2023-02-27T08:48:05.237Z,3.90
2023-02-27T08:50:38.402Z,3.70
2023-02-27T08:53:12.012Z,3.80
2023-02-27T08:55:45.136Z,3.80
2023-02-27T08:58:18.442Z,3.30
2023-02-27T09:00:51.612Z,3.40
2023-02-27T09:03:28.869Z,3.40
2023-02-27T09:06:02.127Z,3.10
2023-02-27T09:08:35.265Z,2.80
2023-02-27T09:11:08.967Z,3.30
2023-02-27T09:13:42.091Z,3.60
2023-02-27T09:16:15.154Z,3.30
2023-02-27T09:18:48.550Z,2.50
2023-02-27T09:21:22.820Z,3.40
2023-02-27T09:24:02.487Z,4.00
2023-02-27T09:26:45.896Z,3.00
2023-02-27T09:29:19.612Z,2.80
2023-02-27T09:31:53.547Z,3.50
2023-02-27T09:34:27.056Z,4.50
2023-02-27T09:37:03.272Z,3.80
2023-02-27T09:39:36.472Z,3.50
2023-02-27T09:42:17.313Z,3.50
2023-02-27T09:44:53.414Z,3.30
2023-02-27T09:47:35.031Z,3.60
2023-02-27T09:50:20.722Z,3.40
2023-02-27T09:52:53.887Z,3.60
2023-02-27T09:55:31.508Z,3.30
2023-02-27T09:58:09.411Z,4.10
2023-02-27T10:01:07.492Z,3.20
2023-02-27T10:04:02.682Z,3.60
2023-02-27T10:06:43.727Z,3.50
2023-02-27T10:09:35.722Z,3.20
2023-02-27T10:12:36.228Z,3.40
2023-02-27T10:15:17.858Z,3.00
2023-02-27T10:17:54.499Z,3.30
2023-02-27T10:20:32.496Z,3.80
2023-02-27T10:23:13.038Z,3.90
2023-02-27T10:28:25.394Z,4.00
2023-02-27T10:31:01.327Z,3.90
2023-02-27T10:33:39.850Z,3.40
2023-02-27T10:36:30.629Z,4.20
2023-02-27T10:39:10.227Z,3.80
2023-02-27T10:41:44.616Z,3.70
2023-02-27T10:44:20.585Z,3.30
2023-02-27T10:46:53.833Z,3.30
2023-02-27T10:49:30.229Z,3.60
2023-02-27T10:52:14.455Z,2.70
2023-02-27T10:54:48.513Z,3.10
2023-02-27T10:57:34.494Z,2.60
2023-02-27T11:00:24.645Z,3.60
2023-02-27T11:02:58.754Z,2.80
2023-02-27T11:05:34.441Z,3.20
2023-02-27T11:08:24.933Z,3.60
2023-02-27T11:11:04.588Z,2.80
2023-02-27T11:13:40.412Z,2.90
2023-02-27T11:16:17.709Z,3.20
2023-02-27T11:18:54.501Z,2.90
2023-02-27T11:21:31.116Z,3.70
2023-02-27T11:24:08.204Z,2.90
2023-02-27T11:26:55.361Z,2.70
2023-02-27T11:29:29.177Z,2.30
2023-02-27T11:32:06.494Z,2.40
2023-02-27T11:34:47.843Z,2.80
2023-02-27T11:37:32.211Z,3.60
2023-02-27T11:40:19.272Z,3.30
2023-02-27T11:42:56.662Z,2.50
2023-02-27T11:46:10.753Z,2.40
2023-02-27T11:48:37.709Z,2.40
2023-02-27T11:51:52.221Z,2.00
2023-02-27T11:54:37.547Z,2.60
2023-02-27T11:57:25.098Z,2.10
2023-02-27T12:00:06.676Z,2.40
2023-02-27T12:02:55.447Z,2.10
2023-02-27T12:05:32.345Z,2.70
2023-02-27T12:08:13.226Z,2.70
2023-02-27T12:11:07.747Z,3.10
2023-02-27T12:13:50.938Z,2.80
2023-02-27T12:16:33.110Z,2.50
2023-02-27T12:19:17.312Z,2.80
2023-02-27T12:21:54.574Z,2.50
2023-02-27T12:24:33.614Z,2.50
2023-02-27T12:27:18.700Z,3.30
2023-02-27T12:29:56.329Z,2.90
2023-02-27T12:32:39.584Z,2.90
2023-02-27T12:35:21.434Z,2.70
2023-02-27T12:37:55.136Z,1.70
2023-02-27T12:40:37.794Z,1.90
2023-02-27T12:43:29.368Z,1.30
2023-02-27T12:46:25.550Z,1.20
2023-02-27T12:49:17.247Z,1.30
2023-02-27T12:52:05.266Z,1.60
2023-02-27T12:54:58.258Z,1.50
2023-02-27T12:57:47.933Z,1.40
2023-02-27T13:00:26.656Z,1.30
2023-02-27T13:03:13.261Z,1.50
2023-02-27T13:05:59.313Z,1.90
2023-02-27T13:09:03.670Z,1.70
2023-02-27T13:11:53.161Z,2.70
2023-02-27T13:14:40.758Z,2.40
2023-02-27T13:17:24.129Z,2.70
2023-02-27T13:20:02.613Z,3.20
2023-02-27T13:22:45.028Z,3.40
2023-02-27T13:25:21.016Z,2.80
2023-02-27T13:28:00.433Z,3.30
2023-02-27T13:30:37.906Z,3.60
2023-02-27T13:33:26.412Z,2.70
2023-02-27T13:36:19.132Z,3.00
2023-02-27T13:38:54.309Z,3.30
2023-02-27T13:41:43.027Z,2.90
2023-02-27T13:44:44.566Z,3.20
2023-02-27T13:47:48.925Z,4.00
2023-02-27T13:50:55.056Z,4.80
2023-02-27T13:53:29.282Z,4.70
2023-02-27T13:56:22.176Z,4.30
2023-02-27T13:58:57.870Z,4.60
2023-02-27T14:01:35.255Z,4.70
2023-02-27T14:04:19.036Z,4.50
2023-02-27T14:06:52.596Z,4.00
2023-02-27T14:09:26.225Z,4.50
2023-02-27T14:12:03.845Z,4.60
2023-02-27T14:14:50.969Z,4.80
2023-02-27T14:17:49.582Z,4.10
2023-02-27T14:20:54.442Z,4.40
2023-02-27T14:23:29.418Z,4.90
2023-02-27T14:26:07.427Z,5.80
2023-02-27T14:28:49.146Z,4.60
2023-02-27T14:31:29.561Z,5.00
2023-02-27T14:34:06.032Z,7.30
2023-02-27T14:36:47.598Z,5.70
2023-02-27T14:39:28.176Z,3.70
2023-02-27T14:44:54.271Z,3.50
2023-02-27T14:47:34.723Z,3.30
2023-02-27T14:52:47.479Z,3.30
2023-02-27T14:55:28.283Z,3.20
2023-02-27T14:58:11.080Z,3.40
2023-02-27T15:00:50.716Z,2.90
2023-02-27T15:03:26.638Z,3.10
2023-02-27T15:06:03.985Z,4.00
2023-02-27T15:08:42.540Z,2.90
2023-02-27T15:11:21.104Z,3.50
2023-02-27T15:14:00.223Z,3.50
2023-02-27T15:16:40.656Z,3.30
2023-02-27T15:19:23.178Z,3.60
2023-02-27T15:21:59.974Z,2.90
2023-02-27T15:24:49.323Z,2.70
2023-02-27T15:27:26.793Z,3.30
2023-02-27T15:30:01.953Z,3.40
2023-02-27T15:32:37.692Z,3.80
2023-02-27T15:35:20.617Z,3.40
2023-02-27T15:37:57.798Z,2.80
2023-02-27T15:40:34.168Z,2.70
2023-02-27T15:43:08.993Z,2.80
2023-02-27T15:45:43.376Z,2.60
2023-02-27T15:48:18.905Z,3.20
2023-02-27T15:50:56.340Z,2.40
2023-02-27T15:53:34.301Z,3.30
2023-02-27T15:56:14.270Z,3.20
2023-02-27T15:58:54.673Z,3.30
2023-02-27T16:01:30.879Z,3.80
2023-02-27T16:04:07.256Z,3.60
2023-02-27T16:06:42.475Z,4.80
2023-02-27T16:09:28.864Z,5.30
2023-02-27T16:12:34.903Z,5.00
2023-02-27T16:15:34.910Z,4.30
2023-02-27T16:18:29.653Z,5.40
2023-02-27T16:21:15.813Z,6.50
2023-02-27T16:23:50.084Z,4.30
2023-02-27T16:26:31.905Z,5.10
2023-02-27T16:29:08.485Z,5.00
2023-02-27T16:31:47.638Z,6.00
2023-02-27T16:34:44.264Z,7.20
2023-02-27T16:37:27.705Z,6.40
2023-02-27T16:40:02.296Z,6.50
2023-02-27T16:42:35.467Z,6.80
2023-02-27T16:45:17.811Z,6.80
2023-02-27T16:47:53.855Z,6.30
2023-02-27T16:50:32.646Z,5.20
2023-02-27T16:53:05.865Z,4.80
2023-02-27T16:55:44.032Z,4.30
2023-02-27T16:58:19.112Z,5.60
2023-02-27T17:00:52.280Z,4.70
2023-02-27T17:03:25.426Z,4.50
2023-02-27T17:05:59.121Z,4.40
2023-02-27T17:08:32.691Z,5.90
2023-02-27T17:11:06.418Z,5.40
2023-02-27T17:13:41.330Z,5.40
2023-02-27T17:16:15.703Z,5.10
2023-02-27T17:18:48.961Z,4.70
2023-02-27T17:21:22.089Z,5.10
2023-02-27T17:23:55.276Z,3.90
2023-02-27T17:26:29.083Z,4.20
2023-02-27T17:29:02.926Z,4.10
2023-02-27T17:31:36.361Z,4.80
2023-02-27T17:34:10.129Z,4.50
2023-02-27T17:36:43.260Z,4.80
2023-02-27T17:39:17.700Z,4.50
2023-02-27T17:41:53.160Z,4.20
2023-02-27T17:44:27.193Z,5.10
2023-02-27T17:47:00.423Z,4.70
2023-02-27T17:49:33.634Z,4.70
2023-02-27T17:52:08.151Z,5.20
2023-02-27T17:54:41.523Z,5.40
2023-02-27T17:57:14.750Z,6.00
2023-02-27T17:59:47.972Z,5.40
2023-02-27T18:02:21.029Z,4.40
2023-02-27T18:04:54.741Z,5.90
2023-02-27T18:07:27.872Z,5.30
2023-02-27T18:10:01.605Z,5.60
2023-02-27T18:12:34.841Z,5.30
2023-02-27T18:15:10.276Z,5.20
2023-02-27T18:17:44.527Z,4.90
2023-02-27T18:20:18.568Z,6.60
2023-02-27T18:22:51.806Z,4.90
2023-02-27T18:25:25.087Z,5.80
2023-02-27T18:28:01.455Z,6.60
2023-02-27T18:30:38.581Z,6.50
2023-02-27T18:33:12.720Z,6.40
2023-02-27T18:35:46.034Z,8.20
2023-02-27T18:38:19.430Z,7.70
2023-02-27T18:40:52.723Z,8.70
2023-02-27T18:43:27.111Z,11.00
2023-02-27T18:46:00.738Z,10.00
2023-02-27T18:48:34.037Z,13.20
2023-02-27T18:51:12.401Z,14.40
2023-02-27T18:53:48.876Z,12.00
2023-02-27T18:56:25.024Z,10.00
2023-02-27T18:59:05.424Z,10.10
2023-02-27T19:04:12.204Z,9.40
2023-02-27T19:06:45.949Z,8.60
2023-02-27T19:09:21.918Z,8.50
2023-02-27T19:11:55.223Z,8.00
2023-02-27T19:14:28.753Z,8.70
2023-02-27T19:17:01.879Z,9.50
2023-02-27T19:19:35.619Z,8.70
2023-02-27T19:22:09.006Z,11.00
2023-02-27T19:24:42.322Z,11.10
2023-02-27T19:27:17.337Z,10.60
2023-02-27T19:29:50.574Z,9.90
2023-02-27T19:32:24.404Z,10.50
2023-02-27T19:34:57.745Z,10.50
2023-02-27T19:37:30.917Z,9.30
2023-02-27T19:40:04.262Z,12.10
2023-02-27T19:42:37.580Z,9.50
2023-02-27T19:45:12.721Z,9.30
2023-02-27T19:47:46.833Z,10.60
2023-02-27T19:50:20.781Z,8.20
2023-02-27T19:52:53.957Z,9.60
2023-02-27T19:55:27.861Z,11.50
2023-02-27T19:58:01.740Z,11.50
2023-02-27T20:00:35.026Z,11.10
2023-02-27T20:03:08.361Z,12.50
2023-02-27T20:05:45.679Z,10.20
2023-02-27T20:08:19.169Z,11.10
2023-02-27T20:11:00.669Z,12.30
2023-02-27T20:13:34.551Z,13.40
2023-02-27T20:16:11.572Z,12.30
2023-02-27T20:18:45.260Z,12.30
2023-02-27T20:21:21.574Z,11.20
2023-02-27T20:23:56.001Z,16.90
2023-02-27T20:26:32.310Z,16.30
2023-02-27T20:29:10.033Z,15.40
2023-02-27T20:31:46.558Z,18.60
2023-02-27T20:34:22.643Z,15.70
2023-02-27T20:36:57.798Z,18.10
2023-02-27T20:39:31.234Z,19.70
2023-02-27T20:42:04.684Z,27.00
2023-02-27T20:44:38.385Z,24.70
2023-02-27T20:47:12.097Z,31.30
2023-02-27T20:49:45.288Z,31.20
2023-02-27T20:52:18.542Z,20.30
2023-02-27T20:54:51.712Z,23.20
2023-02-27T20:57:25.066Z,21.50
2023-02-27T20:59:58.241Z,17.40
2023-02-27T21:02:31.459Z,17.50
2023-02-27T21:05:04.911Z,20.70
2023-02-27T21:07:38.090Z,19.50
2023-02-27T21:10:13.655Z,14.90
2023-02-27T21:12:46.724Z,12.80
2023-02-27T21:15:20.324Z,12.10
2023-02-27T21:17:53.454Z,11.40
2023-02-27T21:20:26.867Z,11.90
2023-02-27T21:22:59.960Z,10.60
2023-02-27T21:25:33.192Z,12.30
2023-02-27T21:28:07.264Z,10.20
2023-02-27T21:30:40.736Z,6.50
2023-02-27T21:33:14.008Z,7.50
2023-02-27T21:35:51.236Z,8.40
2023-02-27T21:38:24.688Z,8.80
2023-02-27T21:40:59.470Z,9.00
2023-02-27T21:43:32.640Z,8.80
2023-02-27T21:46:11.308Z,10.20
2023-02-27T21:48:44.734Z,11.30
2023-02-27T21:51:26.717Z,11.00
2023-02-27T21:54:11.308Z,11.80
2023-02-27T21:56:46.416Z,10.20
2023-02-27T21:59:22.016Z,10.00
2023-02-27T22:01:55.210Z,9.70
2023-02-27T22:04:28.671Z,13.10
2023-02-27T22:07:02.036Z,12.10
2023-02-27T22:09:35.144Z,11.80
2023-02-27T22:12:09.307Z,11.10
2023-02-27T22:14:43.402Z,10.20
2023-02-27T22:17:16.622Z,10.80
2023-02-27T22:19:49.964Z,10.10
2023-02-27T22:22:23.166Z,10.30
2023-02-27T22:24:56.554Z,12.00
2023-02-27T22:27:31.321Z,11.80
2023-02-27T22:30:04.489Z,10.10
2023-02-27T22:32:41.141Z,9.90
2023-02-27T22:35:14.348Z,9.40
2023-02-27T22:37:47.596Z,9.50
2023-02-27T22:40:21.318Z,8.60
2023-02-27T22:42:54.619Z,9.40
2023-02-27T22:45:27.845Z,8.60
2023-02-27T22:48:01.029Z,10.50
2023-02-27T22:50:34.332Z,12.80
2023-02-27T22:53:07.449Z,11.60
2023-02-27T22:55:40.559Z,11.00
2023-02-27T22:58:13.805Z,11.80
2023-02-27T23:00:47.242Z,11.40
2023-02-27T23:03:20.594Z,10.30
2023-02-27T23:05:53.779Z,11.10
2023-02-27T23:08:26.973Z,9.80
2023-02-27T23:11:01.185Z,13.90
2023-02-27T23:13:34.403Z,19.60
2023-02-27T23:16:11.833Z,18.00
2023-02-27T23:18:47.467Z,16.50
2023-02-27T23:21:24.257Z,17.20
2023-02-27T23:23:57.791Z,16.90
2023-02-27T23:26:30.933Z,18.00
2023-02-27T23:29:03.948Z,20.60
2023-02-27T23:31:38.154Z,21.30
2023-02-27T23:34:11.799Z,19.40
2023-02-27T23:36:45.094Z,15.50
2023-02-27T23:39:18.174Z,15.90
2023-02-27T23:41:51.305Z,15.50
2023-02-27T23:44:24.557Z,15.70
2023-02-27T23:46:57.740Z,16.50
2023-02-27T23:49:30.870Z,21.30
2023-02-27T23:52:03.964Z,17.70
2023-02-27T23:54:37.709Z,20.60
2023-02-27T23:57:10.840Z,18.40
2023-02-27T23:59:43.838Z,17.20
